sensor_id;sensor_type;location;lat;lon;timestamp;pressure;altitude;pressure_sealevel;temperature;humidity
18533;BME280;9396;51.510;11.934;2023-01-25T00:00:49;102702.63;;;2.40;100.00
18533;BME280;9396;51.510;11.934;2023-01-25T00:03:16;102699.94;;;2.12;100.00
18533;BME280;9396;51.510;11.934;2023-01-25T00:05:42;102697.28;;;2.43;100.00
18533;BME280;9396;51.510;11.934;2023-01-25T00:08:09;102687.59;;;2.45;100.00
18533;BME280;9396;51.510;11.934;2023-01-25T00:10:36;102690.94;;;2.50;100.00
18533;BME280;9396;51.510;11.934;2023-01-25T00:13:03;102683.47;;;2.36;100.00
18533;BME280;9396;51.510;11.934;2023-01-25T00:15:30;102675.44;;;2.41;100.00
18533;BME280;9396;51.510;11.934;2023-01-25T00:17:57;102672.09;;;2.36;100.00
18533;BME280;9396;51.510;11.934;2023-01-25T00:20:24;102674.19;;;2.25;100.00
18533;BME280;9396;51.510;11.934;2023-01-25T00:22:50;102679.38;;;2.28;100.00
18533;BME280;9396;51.510;11.934;2023-01-25T00:25:17;102682.31;;;2.15;100.00
18533;BME280;9396;51.510;11.934;2023-01-25T00:27:43;102671.34;;;2.32;100.00
18533;BME280;9396;51.510;11.934;2023-01-25T00:30:12;102670.06;;;2.45;100.00
18533;BME280;9396;51.510;11.934;2023-01-25T00:32:52;102676.00;;;2.22;100.00
18533;BME280;9396;51.510;11.934;2023-01-25T00:35:23;102676.66;;;2.00;100.00
18533;BME280;9396;51.510;11.934;2023-01-25T00:37:55;102680.16;;;2.00;100.00
18533;BME280;9396;51.510;11.934;2023-01-25T00:40:21;102673.16;;;2.30;100.00
18533;BME280;9396;51.510;11.934;2023-01-25T00:42:48;102670.56;;;2.29;100.00
18533;BME280;9396;51.510;11.934;2023-01-25T00:45:16;102677.69;;;2.25;100.00
18533;BME280;9396;51.510;11.934;2023-01-25T00:47:43;102677.72;;;2.24;100.00
18533;BME280;9396;51.510;11.934;2023-01-25T00:50:10;102676.72;;;1.98;100.00
18533;BME280;9396;51.510;11.934;2023-01-25T00:52:36;102679.72;;;1.85;100.00
18533;BME280;9396;51.510;11.934;2023-01-25T00:55:03;102679.78;;;1.82;100.00
18533;BME280;9396;51.510;11.934;2023-01-25T00:57:30;102683.09;;;1.90;100.00
18533;BME280;9396;51.510;11.934;2023-01-25T00:59:57;102674.03;;;2.00;100.00
18533;BME280;9396;51.510;11.934;2023-01-25T01:02:25;102677.47;;;2.02;100.00
18533;BME280;9396;51.510;11.934;2023-01-25T01:04:51;102681.34;;;1.89;100.00
18533;BME280;9396;51.510;11.934;2023-01-25T01:07:20;102678.88;;;1.84;100.00
18533;BME280;9396;51.510;11.934;2023-01-25T01:09:47;102676.09;;;2.19;100.00
18533;BME280;9396;51.510;11.934;2023-01-25T01:12:13;102681.16;;;2.26;100.00
18533;BME280;9396;51.510;11.934;2023-01-25T01:14:40;102678.66;;;2.21;100.00
18533;BME280;9396;51.510;11.934;2023-01-25T01:17:07;102670.81;;;1.60;100.00
18533;BME280;9396;51.510;11.934;2023-01-25T01:19:35;102681.41;;;1.55;100.00
18533;BME280;9396;51.510;11.934;2023-01-25T01:22:01;102681.25;;;1.61;100.00
18533;BME280;9396;51.510;11.934;2023-01-25T01:24:28;102677.03;;;1.56;100.00
18533;BME280;9396;51.510;11.934;2023-01-25T01:26:55;102667.75;;;1.75;100.00
18533;BME280;9396;51.510;11.934;2023-01-25T01:29:21;102654.53;;;2.10;100.00
18533;BME280;9396;51.510;11.934;2023-01-25T01:31:49;102646.81;;;2.33;100.00
18533;BME280;9396;51.510;11.934;2023-01-25T01:34:17;102617.84;;;2.07;100.00
18533;BME280;9396;51.510;11.934;2023-01-25T01:36:45;102645.25;;;2.26;100.00
18533;BME280;9396;51.510;11.934;2023-01-25T01:39:12;102650.50;;;2.28;100.00
18533;BME280;9396;51.510;11.934;2023-01-25T01:41:39;102651.44;;;2.25;100.00
18533;BME280;9396;51.510;11.934;2023-01-25T01:44:08;102639.44;;;2.44;100.00
18533;BME280;9396;51.510;11.934;2023-01-25T01:46:39;102641.84;;;2.52;100.00
18533;BME280;9396;51.510;11.934;2023-01-25T01:49:09;102635.25;;;2.66;100.00
18533;BME280;9396;51.510;11.934;2023-01-25T01:51:46;102641.66;;;2.58;100.00
18533;BME280;9396;51.510;11.934;2023-01-25T01:54:16;102625.56;;;2.68;100.00
18533;BME280;9396;51.510;11.934;2023-01-25T01:56:47;102625.84;;;2.59;100.00
18533;BME280;9396;51.510;11.934;2023-01-25T01:59:17;102612.19;;;2.76;100.00
18533;BME280;9396;51.510;11.934;2023-01-25T02:01:44;102609.22;;;2.85;100.00
18533;BME280;9396;51.510;11.934;2023-01-25T02:04:13;102602.28;;;2.84;100.00
18533;BME280;9396;51.510;11.934;2023-01-25T02:06:47;102596.59;;;2.96;100.00
18533;BME280;9396;51.510;11.934;2023-01-25T02:09:18;102580.56;;;3.03;100.00
18533;BME280;9396;51.510;11.934;2023-01-25T02:11:46;102583.00;;;3.09;100.00
18533;BME280;9396;51.510;11.934;2023-01-25T02:14:14;102585.28;;;2.94;100.00
18533;BME280;9396;51.510;11.934;2023-01-25T02:16:42;102585.25;;;2.95;100.00
18533;BME280;9396;51.510;11.934;2023-01-25T02:19:12;102581.84;;;2.66;100.00
18533;BME280;9396;51.510;11.934;2023-01-25T02:21:44;102575.25;;;2.80;100.00
18533;BME280;9396;51.510;11.934;2023-01-25T02:24:17;102572.84;;;2.73;100.00
18533;BME280;9396;51.510;11.934;2023-01-25T02:26:47;102573.16;;;2.64;100.00
18533;BME280;9396;51.510;11.934;2023-01-25T02:29:14;102568.00;;;2.61;100.00
18533;BME280;9396;51.510;11.934;2023-01-25T02:31:43;102573.53;;;2.26;100.00
18533;BME280;9396;51.510;11.934;2023-01-25T02:34:10;102575.09;;;2.03;100.00
18533;BME280;9396;51.510;11.934;2023-01-25T02:36:37;102576.63;;;2.10;100.00
18533;BME280;9396;51.510;11.934;2023-01-25T02:39:06;102567.81;;;2.13;100.00
18533;BME280;9396;51.510;11.934;2023-01-25T02:41:35;102571.75;;;2.26;100.00
18533;BME280;9396;51.510;11.934;2023-01-25T02:44:05;102569.13;;;2.26;100.00
18533;BME280;9396;51.510;11.934;2023-01-25T02:46:34;102566.38;;;2.31;100.00
18533;BME280;9396;51.510;11.934;2023-01-25T02:49:02;102571.78;;;2.25;100.00
18533;BME280;9396;51.510;11.934;2023-01-25T02:51:31;102569.03;;;2.01;100.00
18533;BME280;9396;51.510;11.934;2023-01-25T02:53:59;102562.88;;;2.02;100.00
18533;BME280;9396;51.510;11.934;2023-01-25T02:56:26;102563.53;;;2.09;100.00
18533;BME280;9396;51.510;11.934;2023-01-25T02:58:53;102561.69;;;2.40;100.00
18533;BME280;9396;51.510;11.934;2023-01-25T03:01:21;102558.44;;;2.58;100.00
18533;BME280;9396;51.510;11.934;2023-01-25T03:03:48;102557.41;;;2.64;100.00
18533;BME280;9396;51.510;11.934;2023-01-25T03:06:15;102554.19;;;2.56;100.00
18533;BME280;9396;51.510;11.934;2023-01-25T03:08:42;102555.44;;;2.16;100.00
18533;BME280;9396;51.510;11.934;2023-01-25T03:11:08;102560.97;;;1.78;100.00
18533;BME280;9396;51.510;11.934;2023-01-25T03:13:36;102554.13;;;1.73;100.00
18533;BME280;9396;51.510;11.934;2023-01-25T03:16:05;102554.47;;;1.91;100.00
18533;BME280;9396;51.510;11.934;2023-01-25T03:18:33;102547.69;;;2.12;100.00
18533;BME280;9396;51.510;11.934;2023-01-25T03:21:05;102537.31;;;2.35;100.00
18533;BME280;9396;51.510;11.934;2023-01-25T03:23:32;102537.88;;;2.18;100.00
18533;BME280;9396;51.510;11.934;2023-01-25T03:26:07;102533.09;;;2.03;100.00
18533;BME280;9396;51.510;11.934;2023-01-25T03:28:35;102539.28;;;1.73;100.00
18533;BME280;9396;51.510;11.934;2023-01-25T03:31:02;102541.69;;;1.81;100.00
18533;BME280;9396;51.510;11.934;2023-01-25T03:33:29;102537.56;;;1.72;100.00
18533;BME280;9396;51.510;11.934;2023-01-25T03:35:57;102467.91;;;1.62;100.00
18533;BME280;9396;51.510;11.934;2023-01-25T03:38:24;102534.84;;;2.04;100.00
18533;BME280;9396;51.510;11.934;2023-01-25T03:40:51;102537.47;;;1.75;100.00
18533;BME280;9396;51.510;11.934;2023-01-25T03:43:18;102533.66;;;1.85;100.00
18533;BME280;9396;51.510;11.934;2023-01-25T03:45:50;102529.88;;;1.95;100.00
18533;BME280;9396;51.510;11.934;2023-01-25T03:48:17;102536.97;;;1.92;100.00
18533;BME280;9396;51.510;11.934;2023-01-25T03:50:48;102429.75;;;1.25;100.00
18533;BME280;9396;51.510;11.934;2023-01-25T03:53:16;102529.59;;;2.04;100.00
18533;BME280;9396;51.510;11.934;2023-01-25T03:55:52;102528.97;;;2.22;100.00
18533;BME280;9396;51.510;11.934;2023-01-25T03:58:19;102517.72;;;2.19;100.00
18533;BME280;9396;51.510;11.934;2023-01-25T04:00:46;102526.22;;;1.99;100.00
18533;BME280;9396;51.510;11.934;2023-01-25T04:03:12;102519.16;;;2.29;100.00
18533;BME280;9396;51.510;11.934;2023-01-25T04:05:40;102523.56;;;2.29;100.00
18533;BME280;9396;51.510;11.934;2023-01-25T04:08:07;102522.66;;;2.56;100.00
18533;BME280;9396;51.510;11.934;2023-01-25T04:10:35;102518.59;;;2.72;100.00
18533;BME280;9396;51.510;11.934;2023-01-25T04:13:02;102511.41;;;2.77;100.00
18533;BME280;9396;51.510;11.934;2023-01-25T04:15:28;102513.03;;;2.81;100.00
18533;BME280;9396;51.510;11.934;2023-01-25T04:17:55;102509.06;;;2.94;100.00
18533;BME280;9396;51.510;11.934;2023-01-25T04:20:22;102511.31;;;3.04;100.00
18533;BME280;9396;51.510;11.934;2023-01-25T04:22:49;102502.84;;;2.96;100.00
18533;BME280;9396;51.510;11.934;2023-01-25T04:25:15;102504.47;;;2.76;100.00
18533;BME280;9396;51.510;11.934;2023-01-25T04:27:43;102504.84;;;2.90;100.00
18533;BME280;9396;51.510;11.934;2023-01-25T04:30:11;102512.03;;;2.59;100.00
18533;BME280;9396;51.510;11.934;2023-01-25T04:32:37;102501.44;;;2.36;100.00
18533;BME280;9396;51.510;11.934;2023-01-25T04:35:04;102504.47;;;2.50;100.00
18533;BME280;9396;51.510;11.934;2023-01-25T04:37:31;102491.41;;;2.73;100.00
18533;BME280;9396;51.510;11.934;2023-01-25T04:39:58;102491.22;;;2.79;100.00
18533;BME280;9396;51.510;11.934;2023-01-25T04:42:24;102489.88;;;2.92;100.00
18533;BME280;9396;51.510;11.934;2023-01-25T04:44:52;102479.81;;;3.03;100.00
18533;BME280;9396;51.510;11.934;2023-01-25T04:47:19;102478.59;;;3.13;100.00
18533;BME280;9396;51.510;11.934;2023-01-25T04:49:45;102480.16;;;3.18;100.00
18533;BME280;9396;51.510;11.934;2023-01-25T04:52:12;102463.50;;;3.18;100.00
18533;BME280;9396;51.510;11.934;2023-01-25T04:54:39;102474.47;;;3.06;100.00
18533;BME280;9396;51.510;11.934;2023-01-25T04:57:05;102479.63;;;2.84;100.00
18533;BME280;9396;51.510;11.934;2023-01-25T04:59:32;102474.75;;;2.98;100.00
18533;BME280;9396;51.510;11.934;2023-01-25T05:02:00;102467.00;;;2.94;100.00
18533;BME280;9396;51.510;11.934;2023-01-25T05:04:26;102469.22;;;2.81;100.00
18533;BME280;9396;51.510;11.934;2023-01-25T05:06:53;102461.88;;;2.91;100.00
18533;BME280;9396;51.510;11.934;2023-01-25T05:09:20;102464.34;;;2.95;100.00
18533;BME280;9396;51.510;11.934;2023-01-25T05:11:46;102460.69;;;2.99;100.00
18533;BME280;9396;51.510;11.934;2023-01-25T05:14:13;102468.75;;;2.95;100.00
18533;BME280;9396;51.510;11.934;2023-01-25T05:16:40;102469.28;;;2.80;100.00
18533;BME280;9396;51.510;11.934;2023-01-25T05:19:09;102455.00;;;2.87;100.00
18533;BME280;9396;51.510;11.934;2023-01-25T05:21:35;102470.19;;;3.03;100.00
18533;BME280;9396;51.510;11.934;2023-01-25T05:24:19;102466.69;;;3.03;100.00
18533;BME280;9396;51.510;11.934;2023-01-25T05:26:46;102468.50;;;3.01;100.00
18533;BME280;9396;51.510;11.934;2023-01-25T05:29:33;102450.91;;;3.03;100.00
18533;BME280;9396;51.510;11.934;2023-01-25T05:32:01;102455.19;;;2.82;100.00
18533;BME280;9396;51.510;11.934;2023-01-25T05:34:29;102457.88;;;2.81;100.00
18533;BME280;9396;51.510;11.934;2023-01-25T05:36:56;102453.88;;;2.94;100.00
18533;BME280;9396;51.510;11.934;2023-01-25T05:39:23;102458.28;;;2.93;100.00
18533;BME280;9396;51.510;11.934;2023-01-25T05:41:50;102462.50;;;2.97;100.00
18533;BME280;9396;51.510;11.934;2023-01-25T05:44:16;102457.16;;;3.00;100.00
18533;BME280;9396;51.510;11.934;2023-01-25T05:46:43;102450.81;;;3.06;100.00
18533;BME280;9396;51.510;11.934;2023-01-25T05:49:10;102455.03;;;3.10;100.00
18533;BME280;9396;51.510;11.934;2023-01-25T05:51:39;102448.63;;;3.17;100.00
18533;BME280;9396;51.510;11.934;2023-01-25T05:54:08;102449.28;;;3.23;100.00
18533;BME280;9396;51.510;11.934;2023-01-25T05:56:35;102455.22;;;2.81;100.00
18533;BME280;9396;51.510;11.934;2023-01-25T05:59:01;102445.28;;;2.89;100.00
18533;BME280;9396;51.510;11.934;2023-01-25T06:01:28;102454.69;;;2.96;100.00
18533;BME280;9396;51.510;11.934;2023-01-25T06:03:55;102447.72;;;2.95;100.00
18533;BME280;9396;51.510;11.934;2023-01-25T06:06:22;102446.72;;;2.97;100.00
18533;BME280;9396;51.510;11.934;2023-01-25T06:08:50;102446.72;;;2.97;100.00
18533;BME280;9396;51.510;11.934;2023-01-25T06:11:18;102450.63;;;2.63;100.00
18533;BME280;9396;51.510;11.934;2023-01-25T06:13:46;102398.16;;;2.10;100.00
18533;BME280;9396;51.510;11.934;2023-01-25T06:16:13;102451.81;;;2.54;100.00
18533;BME280;9396;51.510;11.934;2023-01-25T06:18:40;102455.28;;;2.79;100.00
18533;BME280;9396;51.510;11.934;2023-01-25T06:21:07;102453.19;;;2.89;100.00
18533;BME280;9396;51.510;11.934;2023-01-25T06:23:34;102450.22;;;2.98;100.00
18533;BME280;9396;51.510;11.934;2023-01-25T06:26:03;102454.34;;;3.05;100.00
18533;BME280;9396;51.510;11.934;2023-01-25T06:28:31;102450.25;;;2.73;100.00
18533;BME280;9396;51.510;11.934;2023-01-25T06:31:03;102449.13;;;2.80;100.00
18533;BME280;9396;51.510;11.934;2023-01-25T06:33:30;102440.53;;;2.75;100.00
18533;BME280;9396;51.510;11.934;2023-01-25T06:36:00;102444.75;;;2.55;100.00
18533;BME280;9396;51.510;11.934;2023-01-25T06:38:27;102445.94;;;2.71;100.00
18533;BME280;9396;51.510;11.934;2023-01-25T06:40:58;102388.84;;;2.51;100.00
18533;BME280;9396;51.510;11.934;2023-01-25T06:43:28;102433.72;;;2.94;100.00
18533;BME280;9396;51.510;11.934;2023-01-25T06:45:58;102435.25;;;3.00;100.00
18533;BME280;9396;51.510;11.934;2023-01-25T06:48:26;102419.63;;;2.97;100.00
18533;BME280;9396;51.510;11.934;2023-01-25T06:50:54;102433.19;;;3.08;100.00
18533;BME280;9396;51.510;11.934;2023-01-25T06:53:20;102435.72;;;2.88;100.00
18533;BME280;9396;51.510;11.934;2023-01-25T06:55:47;102436.00;;;3.03;100.00
18533;BME280;9396;51.510;11.934;2023-01-25T06:58:14;102426.97;;;3.10;100.00
18533;BME280;9396;51.510;11.934;2023-01-25T07:00:42;102432.81;;;2.71;100.00
18533;BME280;9396;51.510;11.934;2023-01-25T07:03:08;102427.03;;;2.86;100.00
18533;BME280;9396;51.510;11.934;2023-01-25T07:05:35;102425.69;;;2.99;100.00
18533;BME280;9396;51.510;11.934;2023-01-25T07:08:01;102422.81;;;3.05;100.00
18533;BME280;9396;51.510;11.934;2023-01-25T07:10:28;102413.56;;;2.95;100.00
18533;BME280;9396;51.510;11.934;2023-01-25T07:12:55;102414.22;;;3.00;100.00
18533;BME280;9396;51.510;11.934;2023-01-25T07:15:21;102412.41;;;3.02;100.00
18533;BME280;9396;51.510;11.934;2023-01-25T07:17:50;102406.50;;;2.72;100.00
18533;BME280;9396;51.510;11.934;2023-01-25T07:20:16;102402.69;;;2.81;100.00
18533;BME280;9396;51.510;11.934;2023-01-25T07:22:43;102407.69;;;2.87;100.00
18533;BME280;9396;51.510;11.934;2023-01-25T07:25:10;102411.47;;;2.80;100.00
18533;BME280;9396;51.510;11.934;2023-01-25T07:27:36;102402.44;;;2.87;100.00
18533;BME280;9396;51.510;11.934;2023-01-25T07:30:04;102407.81;;;2.84;100.00
18533;BME280;9396;51.510;11.934;2023-01-25T07:32:30;102400.53;;;2.67;100.00
18533;BME280;9396;51.510;11.934;2023-01-25T07:35:00;102395.97;;;2.49;100.00
18533;BME280;9396;51.510;11.934;2023-01-25T07:37:26;102394.84;;;2.55;100.00
18533;BME280;9396;51.510;11.934;2023-01-25T07:39:53;102393.38;;;2.72;100.00
18533;BME280;9396;51.510;11.934;2023-01-25T07:42:22;102395.81;;;2.77;100.00
18533;BME280;9396;51.510;11.934;2023-01-25T07:44:49;102391.25;;;2.82;100.00
18533;BME280;9396;51.510;11.934;2023-01-25T07:47:16;102392.69;;;2.90;100.00
18533;BME280;9396;51.510;11.934;2023-01-25T07:49:42;102386.41;;;2.47;100.00
18533;BME280;9396;51.510;11.934;2023-01-25T07:52:10;102380.72;;;2.59;100.00
18533;BME280;9396;51.510;11.934;2023-01-25T07:54:37;102378.16;;;2.33;100.00
18533;BME280;9396;51.510;11.934;2023-01-25T07:57:04;102375.66;;;2.28;100.00
18533;BME280;9396;51.510;11.934;2023-01-25T07:59:30;102383.16;;;2.14;100.00
18533;BME280;9396;51.510;11.934;2023-01-25T08:01:57;102380.16;;;2.25;100.00
18533;BME280;9396;51.510;11.934;2023-01-25T08:04:23;102381.56;;;2.10;100.00
18533;BME280;9396;51.510;11.934;2023-01-25T08:06:50;102366.16;;;2.26;100.00
18533;BME280;9396;51.510;11.934;2023-01-25T08:09:18;102371.34;;;2.52;100.00
18533;BME280;9396;51.510;11.934;2023-01-25T08:11:45;102366.34;;;2.69;100.00
18533;BME280;9396;51.510;11.934;2023-01-25T08:14:13;102367.94;;;2.73;100.00
18533;BME280;9396;51.510;11.934;2023-01-25T08:16:40;102364.06;;;2.83;100.00
18533;BME280;9396;51.510;11.934;2023-01-25T08:19:08;102364.75;;;2.88;100.00
18533;BME280;9396;51.510;11.934;2023-01-25T08:21:35;102365.91;;;2.81;100.00
18533;BME280;9396;51.510;11.934;2023-01-25T08:24:04;102361.06;;;2.93;100.00
18533;BME280;9396;51.510;11.934;2023-01-25T08:26:33;102362.22;;;2.85;100.00
18533;BME280;9396;51.510;11.934;2023-01-25T08:29:00;102365.66;;;2.87;100.00
18533;BME280;9396;51.510;11.934;2023-01-25T08:31:29;102356.75;;;2.91;100.00
18533;BME280;9396;51.510;11.934;2023-01-25T08:33:56;102362.75;;;2.94;100.00
18533;BME280;9396;51.510;11.934;2023-01-25T08:36:23;102359.38;;;2.91;100.00
18533;BME280;9396;51.510;11.934;2023-01-25T08:38:53;102369.78;;;2.94;100.00
18533;BME280;9396;51.510;11.934;2023-01-25T08:41:20;102366.72;;;3.06;100.00
18533;BME280;9396;51.510;11.934;2023-01-25T08:43:50;102357.88;;;3.07;100.00
18533;BME280;9396;51.510;11.934;2023-01-25T08:46:18;102354.75;;;2.97;100.00
18533;BME280;9396;51.510;11.934;2023-01-25T08:48:45;102375.34;;;2.85;100.00
18533;BME280;9396;51.510;11.934;2023-01-25T08:51:12;102361.66;;;3.00;100.00
18533;BME280;9396;51.510;11.934;2023-01-25T08:53:39;102365.44;;;2.93;100.00
18533;BME280;9396;51.510;11.934;2023-01-25T08:56:07;102354.66;;;2.77;100.00
18533;BME280;9396;51.510;11.934;2023-01-25T08:58:36;102354.81;;;2.73;100.00
18533;BME280;9396;51.510;11.934;2023-01-25T09:01:06;102355.22;;;2.85;100.00
18533;BME280;9396;51.510;11.934;2023-01-25T09:03:34;102348.88;;;2.91;100.00
18533;BME280;9396;51.510;11.934;2023-01-25T09:06:01;102353.97;;;2.95;100.00
18533;BME280;9396;51.510;11.934;2023-01-25T09:08:28;102353.22;;;2.92;100.00
18533;BME280;9396;51.510;11.934;2023-01-25T09:10:59;102226.91;;;2.29;100.00
18533;BME280;9396;51.510;11.934;2023-01-25T09:13:26;102345.56;;;3.09;100.00
18533;BME280;9396;51.510;11.934;2023-01-25T09:15:58;102337.44;;;3.15;100.00
18533;BME280;9396;51.510;11.934;2023-01-25T09:18:26;102339.75;;;3.22;100.00
18533;BME280;9396;51.510;11.934;2023-01-25T09:20:53;102332.97;;;2.94;100.00
18533;BME280;9396;51.510;11.934;2023-01-25T09:23:20;102332.63;;;2.80;100.00
18533;BME280;9396;51.510;11.934;2023-01-25T09:25:48;102335.66;;;2.69;100.00
18533;BME280;9396;51.510;11.934;2023-01-25T09:28:15;102339.94;;;2.49;100.00
18533;BME280;9396;51.510;11.934;2023-01-25T09:30:42;102336.31;;;2.76;100.00
18533;BME280;9396;51.510;11.934;2023-01-25T09:33:08;102330.44;;;2.45;100.00
18533;BME280;9396;51.510;11.934;2023-01-25T09:35:46;102336.72;;;2.41;100.00
18533;BME280;9396;51.510;11.934;2023-01-25T09:38:13;102326.75;;;2.50;100.00
18533;BME280;9396;51.510;11.934;2023-01-25T09:40:42;102323.53;;;2.67;100.00
18533;BME280;9396;51.510;11.934;2023-01-25T09:43:17;102320.31;;;2.82;100.00
18533;BME280;9396;51.510;11.934;2023-01-25T09:45:50;102315.97;;;2.58;100.00
18533;BME280;9396;51.510;11.934;2023-01-25T09:48:24;102313.03;;;2.65;100.00
18533;BME280;9396;51.510;11.934;2023-01-25T09:51:08;102317.81;;;2.79;100.00
18533;BME280;9396;51.510;11.934;2023-01-25T09:53:46;102312.22;;;2.65;100.00
18533;BME280;9396;51.510;11.934;2023-01-25T09:56:19;102306.91;;;2.18;100.00
18533;BME280;9396;51.510;11.934;2023-01-25T09:58:50;102310.16;;;2.00;100.00
18533;BME280;9396;51.510;11.934;2023-01-25T10:01:26;102295.63;;;2.40;100.00
18533;BME280;9396;51.510;11.934;2023-01-25T10:03:58;102312.31;;;2.62;100.00
18533;BME280;9396;51.510;11.934;2023-01-25T10:06:36;102303.75;;;2.57;100.00
18533;BME280;9396;51.510;11.934;2023-01-25T10:09:14;102295.97;;;2.77;100.00
18533;BME280;9396;51.510;11.934;2023-01-25T10:11:43;102293.63;;;2.69;100.00
18533;BME280;9396;51.510;11.934;2023-01-25T10:14:13;102289.31;;;2.68;100.00
18533;BME280;9396;51.510;11.934;2023-01-25T10:16:50;102288.84;;;2.80;100.00
18533;BME280;9396;51.510;11.934;2023-01-25T10:19:26;102285.66;;;2.94;100.00
18533;BME280;9396;51.510;11.934;2023-01-25T10:21:59;102279.81;;;2.87;100.00
18533;BME280;9396;51.510;11.934;2023-01-25T10:27:37;102265.41;;;3.19;100.00
18533;BME280;9396;51.510;11.934;2023-01-25T10:30:21;102267.50;;;3.11;100.00
18533;BME280;9396;51.510;11.934;2023-01-25T10:32:51;102260.94;;;3.21;100.00
18533;BME280;9396;51.510;11.934;2023-01-25T10:35:23;102258.44;;;3.18;100.00
18533;BME280;9396;51.510;11.934;2023-01-25T10:37:53;102248.59;;;3.23;100.00
18533;BME280;9396;51.510;11.934;2023-01-25T10:40:22;102239.22;;;2.94;100.00
18533;BME280;9396;51.510;11.934;2023-01-25T10:42:53;102109.00;;;2.22;100.00
18533;BME280;9396;51.510;11.934;2023-01-25T10:45:21;102232.34;;;2.92;100.00
18533;BME280;9396;51.510;11.934;2023-01-25T10:47:50;102230.22;;;2.78;100.00
18533;BME280;9396;51.510;11.934;2023-01-25T10:50:41;102230.16;;;2.80;100.00
18533;BME280;9396;51.510;11.934;2023-01-25T10:53:21;102239.47;;;2.67;100.00
18533;BME280;9396;51.510;11.934;2023-01-25T10:56:00;102221.06;;;2.67;100.00
18533;BME280;9396;51.510;11.934;2023-01-25T10:58:34;102224.06;;;2.58;100.00
18533;BME280;9396;51.510;11.934;2023-01-25T11:01:00;102209.72;;;2.43;100.00
18533;BME280;9396;51.510;11.934;2023-01-25T11:03:36;102212.88;;;2.53;100.00
18533;BME280;9396;51.510;11.934;2023-01-25T11:06:04;102210.69;;;2.41;100.00
18533;BME280;9396;51.510;11.934;2023-01-25T11:08:36;102204.34;;;2.46;100.00
18533;BME280;9396;51.510;11.934;2023-01-25T11:11:22;102200.03;;;2.22;100.00
18533;BME280;9396;51.510;11.934;2023-01-25T11:13:50;102194.50;;;2.30;100.00
18533;BME280;9396;51.510;11.934;2023-01-25T11:16:29;102195.25;;;2.08;100.00
18533;BME280;9396;51.510;11.934;2023-01-25T11:18:57;102194.25;;;2.12;100.00
18533;BME280;9396;51.510;11.934;2023-01-25T11:21:25;102192.19;;;1.73;100.00
18533;BME280;9396;51.510;11.934;2023-01-25T11:24:11;102195.25;;;1.85;100.00
18533;BME280;9396;51.510;11.934;2023-01-25T11:26:41;102180.31;;;1.87;100.00
18533;BME280;9396;51.510;11.934;2023-01-25T11:29:14;102184.34;;;1.97;100.00
18533;BME280;9396;51.510;11.934;2023-01-25T11:31:43;102172.09;;;1.96;100.00
18533;BME280;9396;51.510;11.934;2023-01-25T11:34:13;102161.41;;;2.02;100.00
18533;BME280;9396;51.510;11.934;2023-01-25T11:39:52;102157.50;;;1.89;100.00
18533;BME280;9396;51.510;11.934;2023-01-25T11:42:29;102155.72;;;1.67;100.00
18533;BME280;9396;51.510;11.934;2023-01-25T11:45:22;102163.19;;;1.77;100.00
18533;BME280;9396;51.510;11.934;2023-01-25T11:48:15;102157.31;;;1.71;100.00
18533;BME280;9396;51.510;11.934;2023-01-25T11:50:51;102157.31;;;1.71;100.00
18533;BME280;9396;51.510;11.934;2023-01-25T11:53:34;102145.22;;;1.67;100.00
18533;BME280;9396;51.510;11.934;2023-01-25T11:56:12;102137.28;;;1.68;100.00
18533;BME280;9396;51.510;11.934;2023-01-25T11:58:54;102140.19;;;1.61;100.00
18533;BME280;9396;51.510;11.934;2023-01-25T12:01:34;102125.72;;;1.74;100.00
18533;BME280;9396;51.510;11.934;2023-01-25T12:04:31;102122.09;;;1.78;100.00
18533;BME280;9396;51.510;11.934;2023-01-25T12:07:03;102118.31;;;1.62;100.00
18533;BME280;9396;51.510;11.934;2023-01-25T12:09:47;102116.38;;;1.67;100.00
18533;BME280;9396;51.510;11.934;2023-01-25T12:12:23;102113.34;;;1.54;100.00
18533;BME280;9396;51.510;11.934;2023-01-25T12:15:08;102111.47;;;1.58;100.00
18533;BME280;9396;51.510;11.934;2023-01-25T12:17:54;102100.41;;;1.73;100.00
18533;BME280;9396;51.510;11.934;2023-01-25T12:20:32;102084.84;;;1.68;100.00
18533;BME280;9396;51.510;11.934;2023-01-25T12:23:12;102087.13;;;1.77;100.00
18533;BME280;9396;51.510;11.934;2023-01-25T12:25:49;102083.44;;;1.83;100.00
18533;BME280;9396;51.510;11.934;2023-01-25T12:28:24;102077.91;;;1.90;100.00
18533;BME280;9396;51.510;11.934;2023-01-25T12:30:55;102078.94;;;1.86;100.00
18533;BME280;9396;51.510;11.934;2023-01-25T12:33:28;102059.03;;;1.81;100.00
18533;BME280;9396;51.510;11.934;2023-01-25T12:36:01;102063.69;;;1.73;100.00
18533;BME280;9396;51.510;11.934;2023-01-25T12:38:34;102063.84;;;1.91;100.00
18533;BME280;9396;51.510;11.934;2023-01-25T12:41:06;102063.19;;;1.86;100.00
18533;BME280;9396;51.510;11.934;2023-01-25T12:43:40;102058.16;;;1.57;100.00
18533;BME280;9396;51.510;11.934;2023-01-25T12:46:13;102057.00;;;1.64;100.00
18533;BME280;9396;51.510;11.934;2023-01-25T12:48:46;102044.72;;;1.66;100.00
18533;BME280;9396;51.510;11.934;2023-01-25T12:51:16;102040.78;;;1.78;100.00
18533;BME280;9396;51.510;11.934;2023-01-25T12:53:46;102028.22;;;1.86;100.00
18533;BME280;9396;51.510;11.934;2023-01-25T12:56:30;102027.34;;;1.85;100.00
18533;BME280;9396;51.510;11.934;2023-01-25T12:59:05;102022.06;;;1.87;100.00
18533;BME280;9396;51.510;11.934;2023-01-25T13:01:38;102019.44;;;2.08;100.00
18533;BME280;9396;51.510;11.934;2023-01-25T13:04:22;102008.22;;;2.05;100.00
18533;BME280;9396;51.510;11.934;2023-01-25T13:06:54;102002.53;;;2.15;100.00
18533;BME280;9396;51.510;11.934;2023-01-25T13:09:33;102000.06;;;2.12;100.00